Terminal Aerodrome Forecast
Issued by NWS

Home | Current Version | Previous Version | Text Only | Print | Product List | Glossary On
Versions: 1 2 3 4 5 6 7 8 9 10 11 12 13
159
FTUS45 KTFX 172320
TAFHLN
TAF
KHLN 172320Z 1800/1824 25015G25KT P6SM BKN200 WS020/27045KT
     FM180600 VRB06KT P6SM SCT200=

USA.gov is the U.S. government's official web portal to all federal, state and local government web resources and services.